createdAt,value
2019-01-17T05:48:43.949Z,99.90
2019-01-17T10:47:52.663Z,55.50
2019-01-17T11:07:51.018Z,53.10
2019-01-17T11:10:17.696Z,52.20
2019-01-17T11:12:44.426Z,52.50
2019-01-17T11:15:11.075Z,52.80
2019-01-17T11:17:37.693Z,50.90
2019-01-17T11:20:04.562Z,50.60
2019-01-17T11:22:31.626Z,51.30
2019-01-17T11:24:58.570Z,51.60
2019-01-17T11:27:25.911Z,51.00
2019-01-17T11:29:52.662Z,51.10
2019-01-17T11:32:19.664Z,51.10
2019-01-17T11:34:46.564Z,50.90
2019-01-17T11:37:13.252Z,50.70
2019-01-17T11:39:39.842Z,49.40
2019-01-17T11:42:06.605Z,49.10
2019-01-17T11:44:33.273Z,50.60
2019-01-17T11:47:00.182Z,48.80
2019-01-17T11:49:26.816Z,48.20
2019-01-17T11:51:53.477Z,48.90
2019-01-17T11:54:20.146Z,48.30
2019-01-17T11:56:46.856Z,48.30
2019-01-17T11:59:13.573Z,46.70
2019-01-17T12:01:40.205Z,46.70
2019-01-17T12:04:07.151Z,46.90
2019-01-17T12:06:34.215Z,49.10
2019-01-17T12:09:01.281Z,48.40
2019-01-17T12:11:28.014Z,46.90
2019-01-17T12:13:56.325Z,47.50
2019-01-17T12:16:22.986Z,46.70
2019-01-17T12:18:49.936Z,48.00
2019-01-17T12:21:16.922Z,48.30
2019-01-17T12:23:43.623Z,46.90
2019-01-17T12:26:10.312Z,46.90
2019-01-17T12:28:37.102Z,46.80
2019-01-17T12:31:04.345Z,47.30
2019-01-17T12:33:31.111Z,46.60
2019-01-17T12:35:58.412Z,46.70
2019-01-17T12:38:26.470Z,47.40
2019-01-17T12:40:53.215Z,47.50
2019-01-17T12:43:20.232Z,45.40
2019-01-17T12:45:47.239Z,46.50
2019-01-17T12:48:14.451Z,45.90
2019-01-17T12:50:41.396Z,46.00
2019-01-17T12:53:08.444Z,45.70
2019-01-17T12:55:35.371Z,46.10
2019-01-17T12:58:02.273Z,47.10
2019-01-17T13:00:29.223Z,44.80
2019-01-17T13:02:56.574Z,45.50
2019-01-17T13:05:23.254Z,45.60
2019-01-17T13:07:49.906Z,45.80
2019-01-17T13:10:16.537Z,45.80
2019-01-17T13:12:43.431Z,46.30
2019-01-17T13:15:10.591Z,45.30
2019-01-17T13:17:37.765Z,44.80
2019-01-17T13:20:05.293Z,47.10
2019-01-17T13:22:32.255Z,44.50
2019-01-17T13:24:58.859Z,44.90
2019-01-17T13:27:26.969Z,44.40
2019-01-17T13:29:53.613Z,45.30
2019-01-17T13:32:20.273Z,44.80
2019-01-17T13:34:46.911Z,45.00
2019-01-17T13:37:13.663Z,45.00
2019-01-17T13:39:40.272Z,45.00
2019-01-17T13:42:07.136Z,45.80
2019-01-17T13:44:34.065Z,46.00
2019-01-17T13:47:01.077Z,46.00
2019-01-17T13:49:28.048Z,46.50
2019-01-17T13:51:54.847Z,45.70
2019-01-17T13:54:21.463Z,46.40
2019-01-17T13:56:48.102Z,47.00
2019-01-17T13:59:15.244Z,46.70
2019-01-17T14:01:42.200Z,46.50
2019-01-17T14:04:09.268Z,47.30
2019-01-17T14:06:36.178Z,47.30
2019-01-17T14:09:03.404Z,47.00
2019-01-17T14:11:30.200Z,47.10
2019-01-17T14:13:57.530Z,46.70
2019-01-17T14:16:24.143Z,46.40
2019-01-17T14:18:50.768Z,46.20
2019-01-17T14:21:17.427Z,46.30
2019-01-17T14:23:44.485Z,46.90
2019-01-17T14:26:12.299Z,47.10
2019-01-17T14:28:39.199Z,46.80
2019-01-17T14:31:05.826Z,46.70
2019-01-17T14:33:32.815Z,47.80
2019-01-17T14:35:59.605Z,47.90
2019-01-17T14:38:28.135Z,48.10
2019-01-17T14:40:54.824Z,48.00
2019-01-17T14:43:21.538Z,47.80
2019-01-17T14:45:49.369Z,47.50
2019-01-17T14:48:16.051Z,48.20
2019-01-17T14:50:42.673Z,48.50
2019-01-17T14:53:09.885Z,49.20
2019-01-17T14:55:36.859Z,49.10
2019-01-17T14:58:03.859Z,49.50
2019-01-17T15:00:30.581Z,49.30
2019-01-17T15:02:57.966Z,49.70
2019-01-17T15:05:24.751Z,51.90
2019-01-17T15:07:51.639Z,52.00
2019-01-17T15:10:18.708Z,51.40
2019-01-17T15:12:45.330Z,50.90
2019-01-17T15:15:12.082Z,51.30
2019-01-17T15:17:38.837Z,52.80
2019-01-17T15:20:05.757Z,53.00
2019-01-17T15:22:32.373Z,53.00
2019-01-17T15:24:59.143Z,53.90
2019-01-17T15:27:27.408Z,53.90
2019-01-17T15:29:54.235Z,53.80
2019-01-17T15:32:20.955Z,55.00
2019-01-17T15:34:47.901Z,55.80
2019-01-17T15:37:14.643Z,55.80
2019-01-17T15:39:41.297Z,56.30
2019-01-17T15:42:07.924Z,56.50
2019-01-17T15:44:34.577Z,57.00
2019-01-17T15:47:01.243Z,57.00
2019-01-17T15:49:28.400Z,58.90
2019-01-17T15:51:55.155Z,58.60
2019-01-17T15:54:22.098Z,58.20
2019-01-17T15:56:49.046Z,59.40
2019-01-17T15:59:15.682Z,59.70
2019-01-17T16:01:42.442Z,61.00
2019-01-17T16:04:09.045Z,60.70
2019-01-17T16:06:36.277Z,61.40
2019-01-17T16:09:03.140Z,62.40
2019-01-17T16:11:30.154Z,61.60
2019-01-17T16:13:58.506Z,61.60
2019-01-17T16:16:25.300Z,62.30
2019-01-17T16:18:52.254Z,61.40
2019-01-17T16:21:19.189Z,61.80
2019-01-17T16:23:46.197Z,62.30
2019-01-17T16:26:12.864Z,61.90
2019-01-17T16:28:39.533Z,61.20
2019-01-17T16:31:06.806Z,63.80
2019-01-17T16:33:33.434Z,65.40
2019-01-17T16:36:00.332Z,65.20
2019-01-17T16:38:28.725Z,68.80
2019-01-17T16:40:55.340Z,69.70
2019-01-17T16:43:22.026Z,71.60
2019-01-17T16:45:48.644Z,72.80
2019-01-17T16:48:15.449Z,70.60
2019-01-17T16:50:42.604Z,69.00
2019-01-17T16:53:09.471Z,68.40
2019-01-17T16:55:36.627Z,69.60
2019-01-17T16:58:03.486Z,68.00
2019-01-17T17:00:30.115Z,67.10
2019-01-17T17:02:56.746Z,69.40
2019-01-17T17:05:23.624Z,68.40
2019-01-17T17:07:50.874Z,68.20
2019-01-17T17:10:17.654Z,69.20
2019-01-17T17:12:44.555Z,71.60
2019-01-17T17:15:11.194Z,74.50
2019-01-17T17:17:37.805Z,74.80
2019-01-17T17:20:04.878Z,73.60
2019-01-17T17:22:31.695Z,72.70
2019-01-17T17:24:59.120Z,71.90
2019-01-17T17:27:25.749Z,71.90
2019-01-17T17:29:52.385Z,71.90
2019-01-17T17:32:19.012Z,71.50
2019-01-17T17:34:45.833Z,72.20
2019-01-17T17:37:12.538Z,71.90
2019-01-17T17:39:39.144Z,74.10
2019-01-17T17:42:06.020Z,73.70
2019-01-17T17:44:33.217Z,73.90
2019-01-17T17:46:59.966Z,74.00
2019-01-17T17:49:26.884Z,74.50
2019-01-17T17:51:53.580Z,76.20
2019-01-17T17:54:20.181Z,75.40
2019-01-17T17:56:47.002Z,74.40
2019-01-17T17:59:14.765Z,76.40
2019-01-17T18:01:41.404Z,76.10
2019-01-17T18:04:08.106Z,75.50
2019-01-17T18:06:34.749Z,76.60
2019-01-17T18:09:01.374Z,75.90
2019-01-17T18:11:29.447Z,75.40
2019-01-17T18:13:56.172Z,74.60
2019-01-17T18:16:22.885Z,75.70
2019-01-17T18:18:49.525Z,76.10
2019-01-17T18:21:16.228Z,77.70
2019-01-17T18:23:43.097Z,80.10
2019-01-17T18:26:09.740Z,82.60
2019-01-17T18:28:36.416Z,80.70
2019-01-17T18:31:03.599Z,81.70
2019-01-17T18:33:30.342Z,80.30
2019-01-17T18:35:57.244Z,80.00
2019-01-17T18:38:23.868Z,79.30
2019-01-17T18:40:50.436Z,82.60
2019-01-17T18:43:17.365Z,81.10
2019-01-17T18:45:43.992Z,79.30
2019-01-17T18:48:10.605Z,83.30
2019-01-17T18:50:37.811Z,82.80
2019-01-17T18:53:04.659Z,81.30
2019-01-17T18:55:31.559Z,83.20
2019-01-17T18:57:59.930Z,81.20
2019-01-17T19:00:26.630Z,82.60
2019-01-17T19:02:53.624Z,82.70
2019-01-17T19:05:20.253Z,82.10
2019-01-17T19:07:46.889Z,82.10
2019-01-17T19:10:13.655Z,80.20
2019-01-17T19:12:40.283Z,82.40
2019-01-17T19:15:06.933Z,88.30
2019-01-17T19:17:33.690Z,90.00
2019-01-17T19:20:00.335Z,86.20
2019-01-17T19:22:26.963Z,85.00
2019-01-17T19:24:53.991Z,87.10
2019-01-17T19:27:21.869Z,86.60
2019-01-17T19:29:48.494Z,85.90
2019-01-17T19:32:15.152Z,88.20
2019-01-17T19:34:41.882Z,87.00
2019-01-17T19:37:08.492Z,85.80
2019-01-17T19:39:35.151Z,86.70
2019-01-17T19:42:02.091Z,87.20
2019-01-17T19:44:30.212Z,89.30
2019-01-17T19:46:57.036Z,88.30
2019-01-17T19:49:23.948Z,90.70
2019-01-17T19:51:50.552Z,91.20
2019-01-17T19:54:17.167Z,91.00
2019-01-17T19:56:44.108Z,88.50
2019-01-17T19:59:10.995Z,88.30
2019-01-17T20:01:37.710Z,89.00
2019-01-17T20:04:07.617Z,90.50
2019-01-17T20:06:34.289Z,90.20
2019-01-17T20:09:01.091Z,88.70
2019-01-17T20:11:27.750Z,87.50
2019-01-17T20:13:54.421Z,89.30
2019-01-17T20:16:21.193Z,90.30
2019-01-17T20:18:47.982Z,89.60
2019-01-17T20:21:14.610Z,89.50
2019-01-17T20:23:41.372Z,89.60
2019-01-17T20:26:07.998Z,90.60
2019-01-17T20:28:35.812Z,92.10
2019-01-17T20:31:03.870Z,91.40
2019-01-17T20:33:30.933Z,90.90
2019-01-17T20:35:57.524Z,91.00
2019-01-17T20:38:24.433Z,91.50
2019-01-17T20:40:51.039Z,90.40
2019-01-17T20:43:17.992Z,89.80
2019-01-17T20:45:44.633Z,90.10
2019-01-17T20:48:12.326Z,91.50
2019-01-17T20:50:39.130Z,91.40
2019-01-17T20:53:05.719Z,91.10
2019-01-17T20:55:32.646Z,91.10
2019-01-17T20:58:01.035Z,89.40
2019-01-17T21:00:27.751Z,88.50
2019-01-17T21:02:54.790Z,88.40
2019-01-17T21:05:21.762Z,90.00
2019-01-17T21:07:48.693Z,90.90
2019-01-17T21:10:15.292Z,90.80
2019-01-17T21:12:42.274Z,91.50
2019-01-17T21:15:09.145Z,91.50
2019-01-17T21:20:22.646Z,91.10
2019-01-17T21:22:52.794Z,90.70
2019-01-17T21:25:23.229Z,91.40
2019-01-17T21:27:55.618Z,91.00
2019-01-17T21:33:12.540Z,92.10
2019-01-17T21:35:39.146Z,92.80
2019-01-17T21:38:11.396Z,94.10
2019-01-17T21:40:40.038Z,92.60
2019-01-17T21:43:11.868Z,92.10
2019-01-17T21:45:42.763Z,91.80
2019-01-17T21:48:10.042Z,90.10
2019-01-17T21:50:40.707Z,90.10
2019-01-17T21:53:10.529Z,90.20
2019-01-17T21:55:38.039Z,90.20
2019-01-17T22:13:06.297Z,93.40
2019-01-17T22:15:32.932Z,92.30
2019-01-17T22:17:59.795Z,93.70
2019-01-17T22:20:26.414Z,93.40
2019-01-17T22:22:53.019Z,93.70
2019-01-17T22:25:19.635Z,93.00
2019-01-17T22:27:46.386Z,91.80
2019-01-17T22:30:13.130Z,91.00
2019-01-17T22:32:39.851Z,90.30
2019-01-17T22:35:06.471Z,91.80
2019-01-17T22:37:33.262Z,92.50
2019-01-17T22:40:00.518Z,95.20
2019-01-17T22:42:27.135Z,95.70
2019-01-17T22:44:54.033Z,95.10
2019-01-17T22:47:20.640Z,97.00
2019-01-17T22:49:47.299Z,95.50
2019-01-17T22:52:13.895Z,94.70
2019-01-17T22:54:40.700Z,94.00
2019-01-17T22:57:09.093Z,93.50
2019-01-17T22:59:35.768Z,93.00
2019-01-17T23:02:02.420Z,92.70
2019-01-17T23:04:29.080Z,92.20
2019-01-17T23:06:55.979Z,92.60
2019-01-17T23:09:22.882Z,92.30
2019-01-17T23:11:49.607Z,92.40
2019-01-17T23:14:16.227Z,92.50
2019-01-17T23:16:43.036Z,92.10
2019-01-17T23:19:09.951Z,92.40
2019-01-17T23:21:36.543Z,92.10
2019-01-17T23:24:03.126Z,92.90
2019-01-17T23:26:30.108Z,92.50
2019-01-17T23:28:57.304Z,92.70
2019-01-17T23:31:24.134Z,93.40
2019-01-17T23:33:51.321Z,92.90
2019-01-17T23:36:18.193Z,93.00
2019-01-17T23:38:45.434Z,93.70
2019-01-17T23:41:12.128Z,94.10
2019-01-17T23:43:39.597Z,94.10
2019-01-17T23:46:06.230Z,93.50
2019-01-17T23:48:33.125Z,93.40
2019-01-17T23:50:59.734Z,93.20
2019-01-17T23:53:26.600Z,92.80
2019-01-17T23:55:53.286Z,92.20
2019-01-17T23:58:19.916Z,92.00
